Time;durP1;ratioP1;P1;durP2;ratioP2;P2;SDS_P1;SDS_P2;PMS_P1;PMS_P2;Temp;Humidity;BMP_temperature;BMP_pressure;BME280_temperature;BME280_humidity;BME280_pressure;Samples;Min_cycle;Max_cycle;Signal;HPM_P1;HPM_P2
2023/01/27 00:00:19;;;;;;;;;;;-1.50;99.90;;;;;;5066768;28;19987;-68
2023/01/27 00:02:46;;;;;;;;;;;-1.40;99.90;;;;;;5066308;28;19929;-68
2023/01/27 00:05:13;;;;;;;;;;;-1.40;99.90;;;;;;5066392;28;19921;-69
2023/01/27 00:07:44;;;;;;;;;;;-1.40;99.90;;;;;;5066025;28;19983;-69
2023/01/27 00:10:20;;;;;;;;;;;-1.40;99.90;;;;;;5065484;28;19920;-68
2023/01/27 00:15:33;;;;;;;;;;;-1.40;99.90;;;;;;5066427;28;19939;-69
2023/01/27 00:17:59;;;;;;;;;;;-1.40;99.90;;;;;;5056616;28;19983;-68
2023/01/27 00:26:00;;;;;;;;;;;-1.50;99.90;;;;;;5065757;28;19970;-70
2023/01/27 00:28:30;;;;;;;;;;;-1.50;99.90;;;;;;5065480;28;19921;-69
2023/01/27 00:30:57;;;;;;;;;;;-1.50;99.90;;;;;;5066114;28;19921;-69
2023/01/27 00:33:25;;;;;;;;;;;-1.50;99.90;;;;;;5065958;28;19920;-69
2023/01/27 00:36:02;;;;;;;;;;;-1.50;99.90;;;;;;5065857;28;19917;-68
2023/01/27 00:38:29;;;;;;;;;;;-1.50;99.90;;;;;;5065558;28;19921;-68
2023/01/27 00:43:41;;;;;;;;;;;-1.40;99.90;;;;;;5065777;28;20115;-68
2023/01/27 00:46:08;;;;;;;;;;;-1.40;99.90;;;;;;5065189;28;19927;-68
2023/01/27 00:48:36;;;;;;;;;;;-1.40;99.90;;;;;;5065840;28;19987;-70
2023/01/27 00:51:03;;;;;;;;;;;-1.40;99.90;;;;;;5065775;28;19927;-69
2023/01/27 00:53:30;;;;;;;;;;;-1.40;99.90;;;;;;5065513;28;19920;-69
2023/01/27 00:55:57;;;;;;;;;;;-1.40;99.90;;;;;;5065710;28;19931;-68
2023/01/27 00:58:24;;;;;;;;;;;-1.40;99.90;;;;;;5065045;28;19949;-69
2023/01/27 01:00:53;;;;;;;;;;;-1.40;99.90;;;;;;5065661;28;19921;-68
2023/01/27 01:03:20;;;;;;;;;;;-1.40;99.90;;;;;;5065755;28;19920;-68
2023/01/27 01:05:47;;;;;;;;;;;-1.40;99.90;;;;;;5064901;28;19960;-69
2023/01/27 01:08:13;;;;;;;;;;;-1.40;99.90;;;;;;5064114;28;20166;-68
2023/01/27 01:10:40;;;;;;;;;;;-1.40;99.90;;;;;;5065385;28;19984;-69
2023/01/27 01:13:08;;;;;;;;;;;-1.30;99.90;;;;;;5075816;28;19943;-68
2023/01/27 01:15:35;;;;;;;;;;;-1.30;99.90;;;;;;5085405;28;20142;-68
2023/01/27 01:18:03;;;;;;;;;;;-1.30;99.90;;;;;;5084840;28;19921;-69
2023/01/27 01:20:30;;;;;;;;;;;-1.30;99.90;;;;;;5085354;28;19984;-69
2023/01/27 01:22:57;;;;;;;;;;;-1.30;99.90;;;;;;5085220;28;19984;-69
2023/01/27 01:25:23;;;;;;;;;;;-1.30;99.90;;;;;;5085182;28;20092;-69
2023/01/27 01:27:50;;;;;;;;;;;-1.30;99.90;;;;;;5084479;28;20270;-70
2023/01/27 01:30:17;;;;;;;;;;;-1.20;99.90;;;;;;5084470;28;19964;-69
2023/01/27 01:32:44;;;;;;;;;;;-1.30;99.90;;;;;;5084701;28;19992;-69
2023/01/27 01:35:12;;;;;;;;;;;-1.30;99.90;;;;;;5066571;28;19980;-70
2023/01/27 01:37:38;;;;;;;;;;;-1.30;99.90;;;;;;5064175;28;19984;-69
2023/01/27 01:40:07;;;;;;;;;;;-1.30;99.90;;;;;;5064436;28;19975;-69
2023/01/27 01:42:47;;;;;;;;;;;-1.40;99.90;;;;;;5064185;28;20179;-69
2023/01/27 01:45:43;;;;;;;;;;;-1.30;99.90;;;;;;5064077;28;19935;-69
2023/01/27 01:48:11;;;;;;;;;;;-1.40;99.90;;;;;;5063648;28;19952;-69
2023/01/27 01:50:40;;;;;;;;;;;-1.40;99.90;;;;;;5064160;28;19931;-69
2023/01/27 01:53:09;;;;;;;;;;;-1.30;99.90;;;;;;5064244;28;19992;-69
2023/01/27 01:55:37;;;;;;;;;;;-1.40;99.90;;;;;;5063763;28;19928;-69
2023/01/27 01:58:04;;;;;;;;;;;-1.40;99.90;;;;;;5063586;28;19920;-69
2023/01/27 02:00:31;;;;;;;;;;;-1.40;99.90;;;;;;5063678;28;19927;-69
2023/01/27 02:02:58;;;;;;;;;;;-1.40;99.90;;;;;;5063801;28;19935;-68
2023/01/27 02:05:27;;;;;;;;;;;-1.40;99.90;;;;;;5063954;28;19929;-69
2023/01/27 02:07:57;;;;;;;;;;;-1.40;99.90;;;;;;5063511;28;19920;-69
2023/01/27 02:10:24;;;;;;;;;;;-1.30;99.90;;;;;;5063886;28;19927;-71
2023/01/27 02:12:50;;;;;;;;;;;-1.40;99.90;;;;;;5063432;28;19920;-69
2023/01/27 02:15:17;;;;;;;;;;;-1.40;99.90;;;;;;5063845;28;19927;-69
2023/01/27 02:17:44;;;;;;;;;;;-1.40;99.90;;;;;;5063399;28;19921;-69
2023/01/27 02:20:16;;;;;;;;;;;-1.40;99.90;;;;;;5063525;28;19999;-69
2023/01/27 02:22:46;;;;;;;;;;;-1.40;99.90;;;;;;5063701;28;19987;-68
2023/01/27 02:25:17;;;;;;;;;;;-1.30;99.90;;;;;;5063637;28;19921;-68
2023/01/27 02:27:45;;;;;;;;;;;-1.30;99.90;;;;;;5063334;28;19984;-69
2023/01/27 02:30:12;;;;;;;;;;;-1.30;99.90;;;;;;5063350;28;19921;-67
2023/01/27 02:32:39;;;;;;;;;;;-1.30;99.90;;;;;;5063303;28;19927;-69
2023/01/27 02:35:06;;;;;;;;;;;-1.30;99.90;;;;;;5063079;28;20216;-69
2023/01/27 02:37:32;;;;;;;;;;;-1.30;99.90;;;;;;5062912;28;20008;-69
2023/01/27 02:39:59;;;;;;;;;;;-1.30;99.90;;;;;;5063016;28;19988;-69
2023/01/27 02:42:27;;;;;;;;;;;-1.30;99.90;;;;;;5077391;28;19920;-69
2023/01/27 02:44:54;;;;;;;;;;;-1.30;99.90;;;;;;5075696;28;19920;-69
2023/01/27 02:47:21;;;;;;;;;;;-1.30;99.90;;;;;;5062999;28;19936;-70
2023/01/27 02:49:50;;;;;;;;;;;-1.30;99.90;;;;;;5063040;28;19981;-68
2023/01/27 02:52:17;;;;;;;;;;;-1.30;99.90;;;;;;5063282;28;19921;-69
2023/01/27 02:54:44;;;;;;;;;;;-1.30;99.90;;;;;;5062964;28;20279;-69
2023/01/27 02:57:10;;;;;;;;;;;-1.30;99.90;;;;;;5062702;28;19952;-69
2023/01/27 02:59:37;;;;;;;;;;;-1.30;99.90;;;;;;5063125;28;20140;-69
2023/01/27 03:02:05;;;;;;;;;;;-1.30;99.90;;;;;;5062762;28;19989;-69
2023/01/27 03:04:32;;;;;;;;;;;-1.30;99.90;;;;;;5062903;28;19924;-68
2023/01/27 03:06:59;;;;;;;;;;;-1.30;99.90;;;;;;5062859;28;19984;-69
2023/01/27 03:09:25;;;;;;;;;;;-1.30;99.90;;;;;;5062725;28;20251;-69
2023/01/27 03:20:06;;;;;;;;;;;-1.30;99.90;;;;;;5062977;28;20139;-69
2023/01/27 03:22:32;;;;;;;;;;;-1.30;99.90;;;;;;5063058;28;19927;-69
2023/01/27 03:24:59;;;;;;;;;;;-1.30;99.90;;;;;;5062585;28;20418;-69
2023/01/27 03:27:26;;;;;;;;;;;-1.30;99.90;;;;;;5062675;28;19927;-69
2023/01/27 03:29:55;;;;;;;;;;;-1.30;99.90;;;;;;5062933;28;20184;-68
2023/01/27 03:32:24;;;;;;;;;;;-1.40;99.90;;;;;;5063068;28;19920;-68
2023/01/27 03:34:50;;;;;;;;;;;-1.30;99.90;;;;;;5062917;28;19959;-69
2023/01/27 03:48:17;;;;;;;;;;;-1.30;99.90;;;;;;5062416;28;19923;-70
2023/01/27 03:50:44;;;;;;;;;;;-1.30;99.90;;;;;;5062398;28;19920;-69
2023/01/27 03:53:10;;;;;;;;;;;-1.30;99.90;;;;;;5065428;28;19921;-69
2023/01/27 03:55:37;;;;;;;;;;;-1.30;99.90;;;;;;5066033;28;19927;-68
2023/01/27 03:58:16;;;;;;;;;;;-1.20;99.90;;;;;;5066122;28;19920;-69
2023/01/27 04:00:44;;;;;;;;;;;-1.20;99.90;;;;;;5066135;28;20008;-69
2023/01/27 04:08:41;;;;;;;;;;;-1.20;99.90;;;;;;5045783;28;19927;-69
2023/01/27 04:13:52;;;;;;;;;;;-1.20;99.90;;;;;;5046097;28;19923;-69
2023/01/27 04:16:19;;;;;;;;;;;-1.20;99.90;;;;;;5045770;28;19988;-69
2023/01/27 04:18:46;;;;;;;;;;;-1.10;99.90;;;;;;5045624;28;19933;-69
2023/01/27 04:21:14;;;;;;;;;;;-1.20;99.90;;;;;;5045746;28;19992;-69
2023/01/27 04:23:41;;;;;;;;;;;-1.20;99.90;;;;;;5045954;28;19927;-68
2023/01/27 04:26:07;;;;;;;;;;;-1.30;99.90;;;;;;5045761;28;19921;-68
2023/01/27 04:28:34;;;;;;;;;;;-1.30;99.90;;;;;;5045913;28;19957;-69
2023/01/27 04:31:01;;;;;;;;;;;-1.30;99.90;;;;;;5045840;28;19964;-68
2023/01/27 04:33:28;;;;;;;;;;;-1.30;99.90;;;;;;5061109;28;20175;-71
2023/01/27 04:35:55;;;;;;;;;;;-1.30;99.90;;;;;;5065524;28;20163;-70
2023/01/27 04:38:23;;;;;;;;;;;-1.30;99.90;;;;;;5065147;28;20148;-68
2023/01/27 04:40:49;;;;;;;;;;;-1.30;99.90;;;;;;5065453;28;20267;-69
2023/01/27 04:43:16;;;;;;;;;;;-1.30;99.90;;;;;;5065296;28;20227;-69
2023/01/27 04:45:43;;;;;;;;;;;-1.30;99.90;;;;;;5065358;28;19971;-69
2023/01/27 04:48:09;;;;;;;;;;;-1.30;99.90;;;;;;5065382;28;20012;-70
2023/01/27 04:50:36;;;;;;;;;;;-1.30;99.90;;;;;;5065028;28;19959;-69
2023/01/27 04:53:02;;;;;;;;;;;-1.30;99.90;;;;;;5065339;28;19952;-69
2023/01/27 04:55:30;;;;;;;;;;;-1.30;99.90;;;;;;5065450;28;20168;-69
2023/01/27 04:57:57;;;;;;;;;;;-1.40;99.90;;;;;;5064776;28;19952;-69
2023/01/27 05:00:24;;;;;;;;;;;-1.30;99.90;;;;;;5065171;28;19927;-69
2023/01/27 05:02:50;;;;;;;;;;;-1.30;99.90;;;;;;5064934;28;19928;-68
2023/01/27 05:05:17;;;;;;;;;;;-1.30;99.90;;;;;;5064261;28;19984;-68
2023/01/27 05:07:43;;;;;;;;;;;-1.20;99.90;;;;;;5064650;28;19935;-69
2023/01/27 05:10:11;;;;;;;;;;;-1.30;99.90;;;;;;5065221;28;19962;-69
2023/01/27 05:12:38;;;;;;;;;;;-1.30;99.90;;;;;;5064989;28;20016;-68
2023/01/27 05:15:06;;;;;;;;;;;-1.30;99.90;;;;;;5065013;28;19920;-69
2023/01/27 05:17:33;;;;;;;;;;;-1.30;99.90;;;;;;5064226;28;19935;-68
2023/01/27 05:20:00;;;;;;;;;;;-1.30;99.90;;;;;;5064764;28;20163;-69
2023/01/27 05:22:26;;;;;;;;;;;-1.30;99.90;;;;;;5064807;28;20166;-69
2023/01/27 05:24:56;;;;;;;;;;;-1.30;99.90;;;;;;5064063;28;19952;-69
2023/01/27 05:27:22;;;;;;;;;;;-1.30;99.90;;;;;;5064481;28;19988;-69
2023/01/27 05:29:51;;;;;;;;;;;-1.40;99.90;;;;;;5064295;28;19920;-69
2023/01/27 05:32:18;;;;;;;;;;;-1.40;99.90;;;;;;5064443;28;19920;-70
2023/01/27 05:34:44;;;;;;;;;;;-1.40;99.90;;;;;;5064719;28;19952;-69
2023/01/27 05:37:11;;;;;;;;;;;-1.40;99.90;;;;;;5064297;28;19952;-69
2023/01/27 05:39:38;;;;;;;;;;;-1.30;99.90;;;;;;5064381;28;20020;-69
2023/01/27 05:42:05;;;;;;;;;;;-1.40;99.90;;;;;;5064254;28;19952;-68
2023/01/27 05:44:31;;;;;;;;;;;-1.40;99.90;;;;;;5064461;28;19927;-68
2023/01/27 05:46:59;;;;;;;;;;;-1.40;99.90;;;;;;5064099;28;19988;-68
2023/01/27 05:49:26;;;;;;;;;;;-1.30;99.90;;;;;;5064189;28;19987;-69
2023/01/27 05:51:53;;;;;;;;;;;-1.40;99.90;;;;;;5064316;28;20179;-68
2023/01/27 05:54:19;;;;;;;;;;;-1.30;99.90;;;;;;5064399;28;19992;-69
2023/01/27 05:56:46;;;;;;;;;;;-1.30;99.90;;;;;;5064119;28;19921;-69
2023/01/27 05:59:12;;;;;;;;;;;-1.30;99.90;;;;;;5063767;28;20112;-68
2023/01/27 06:01:39;;;;;;;;;;;-1.30;99.90;;;;;;5064122;28;19927;-69
2023/01/27 06:04:07;;;;;;;;;;;-1.30;99.90;;;;;;5064055;28;19920;-68
2023/01/27 06:06:34;;;;;;;;;;;-1.40;99.90;;;;;;5063754;28;19928;-69
2023/01/27 06:09:00;;;;;;;;;;;-1.40;99.90;;;;;;5062987;28;19921;-68
2023/01/27 06:11:27;;;;;;;;;;;-1.40;99.90;;;;;;5064012;28;19964;-69
2023/01/27 06:13:54;;;;;;;;;;;-1.40;99.90;;;;;;5064047;28;20037;-68
2023/01/27 06:16:21;;;;;;;;;;;-1.40;99.90;;;;;;5063522;28;20260;-67
2023/01/27 06:18:48;;;;;;;;;;;-1.30;99.90;;;;;;5063903;28;19963;-68
2023/01/27 06:21:19;;;;;;;;;;;-1.30;99.90;;;;;;5063786;28;19927;-69
2023/01/27 06:23:45;;;;;;;;;;;-1.30;99.90;;;;;;5063683;28;20247;-69
2023/01/27 06:26:13;;;;;;;;;;;-1.30;99.90;;;;;;5063161;28;20359;-69
2023/01/27 06:28:39;;;;;;;;;;;-1.30;99.90;;;;;;5063611;28;19924;-69
2023/01/27 06:31:07;;;;;;;;;;;-1.30;99.90;;;;;;5063607;28;19979;-70
2023/01/27 06:33:33;;;;;;;;;;;-1.30;99.90;;;;;;5063454;28;19922;-70
2023/01/27 06:36:01;;;;;;;;;;;-1.30;99.90;;;;;;5063250;28;20207;-69
2023/01/27 06:38:29;;;;;;;;;;;-1.30;99.90;;;;;;5063490;28;19944;-69
2023/01/27 06:40:55;;;;;;;;;;;-1.30;99.90;;;;;;5063436;28;19920;-70
2023/01/27 06:43:22;;;;;;;;;;;-1.30;99.90;;;;;;5063388;28;19921;-70
2023/01/27 06:45:49;;;;;;;;;;;-1.40;99.90;;;;;;5063771;28;19921;-68
2023/01/27 06:48:15;;;;;;;;;;;-1.30;99.90;;;;;;5063795;28;20123;-70
2023/01/27 06:50:42;;;;;;;;;;;-1.30;99.90;;;;;;5063004;28;19927;-69
2023/01/27 06:53:09;;;;;;;;;;;-1.30;99.90;;;;;;5067566;28;19948;-70
2023/01/27 06:55:40;;;;;;;;;;;-1.30;99.90;;;;;;5083126;28;20211;-69
2023/01/27 06:58:07;;;;;;;;;;;-1.30;99.90;;;;;;5083406;28;19924;-70
2023/01/27 07:00:33;;;;;;;;;;;-1.30;99.90;;;;;;5083111;28;19927;-70
2023/01/27 07:03:00;;;;;;;;;;;-1.40;99.90;;;;;;5082737;28;19987;-70
2023/01/27 07:05:27;;;;;;;;;;;-1.40;99.90;;;;;;5081690;28;19928;-70
2023/01/27 07:07:54;;;;;;;;;;;-1.40;99.90;;;;;;5082752;28;19921;-70
2023/01/27 07:10:21;;;;;;;;;;;-1.50;99.90;;;;;;5063140;28;19980;-69
2023/01/27 07:12:48;;;;;;;;;;;-1.50;99.90;;;;;;5062824;28;20000;-70
2023/01/27 07:15:15;;;;;;;;;;;-1.50;99.90;;;;;;5062848;28;19929;-70
2023/01/27 07:17:42;;;;;;;;;;;-1.40;99.90;;;;;;5062397;28;19997;-70
2023/01/27 07:20:11;;;;;;;;;;;-1.40;99.90;;;;;;5063126;28;19960;-70
2023/01/27 07:22:37;;;;;;;;;;;-1.40;99.90;;;;;;5062743;28;19928;-70
2023/01/27 07:25:05;;;;;;;;;;;-1.40;99.90;;;;;;5063077;28;19927;-68
2023/01/27 07:27:32;;;;;;;;;;;-1.40;99.90;;;;;;5064604;28;19921;-70
2023/01/27 07:30:00;;;;;;;;;;;-1.40;99.90;;;;;;5067058;28;20085;-72
2023/01/27 07:32:26;;;;;;;;;;;-1.40;99.90;;;;;;5066542;28;19963;-70
2023/01/27 07:34:53;;;;;;;;;;;-1.40;99.90;;;;;;5067084;28;19983;-70
2023/01/27 07:37:20;;;;;;;;;;;-1.30;99.90;;;;;;5066325;28;20291;-70
2023/01/27 07:39:47;;;;;;;;;;;-1.40;99.90;;;;;;5066903;28;19921;-69
2023/01/27 07:42:14;;;;;;;;;;;-1.40;99.90;;;;;;5066288;28;19920;-70
2023/01/27 07:44:40;;;;;;;;;;;-1.30;99.90;;;;;;5066883;28;19984;-70
2023/01/27 07:47:08;;;;;;;;;;;-1.30;99.90;;;;;;5066597;28;19959;-69
2023/01/27 07:49:35;;;;;;;;;;;-1.40;99.90;;;;;;5066293;28;20279;-69
2023/01/27 07:52:01;;;;;;;;;;;-1.30;99.90;;;;;;5066337;28;19921;-70
2023/01/27 07:54:28;;;;;;;;;;;-1.40;99.90;;;;;;5066671;28;19988;-70
2023/01/27 07:56:55;;;;;;;;;;;-1.40;99.90;;;;;;5066357;28;19979;-70
2023/01/27 07:59:21;;;;;;;;;;;-1.40;99.90;;;;;;5066128;28;19963;-69
2023/01/27 08:01:48;;;;;;;;;;;-1.40;99.90;;;;;;5066590;28;19984;-70
2023/01/27 08:04:16;;;;;;;;;;;-1.40;99.90;;;;;;5066496;28;20163;-70
2023/01/27 08:06:42;;;;;;;;;;;-1.30;99.90;;;;;;5065701;28;19921;-69
2023/01/27 08:09:09;;;;;;;;;;;-1.30;99.90;;;;;;5066084;28;20117;-68
2023/01/27 08:11:36;;;;;;;;;;;-1.30;99.90;;;;;;5066074;28;19964;-70
2023/01/27 08:14:02;;;;;;;;;;;-1.30;99.90;;;;;;5066040;28;19921;-69
2023/01/27 08:16:29;;;;;;;;;;;-1.30;99.90;;;;;;5066090;28;20115;-69
2023/01/27 08:18:56;;;;;;;;;;;-1.30;99.90;;;;;;5065973;28;19921;-69
2023/01/27 08:21:26;;;;;;;;;;;-1.40;99.90;;;;;;5066179;28;19993;-70
2023/01/27 08:23:53;;;;;;;;;;;-1.40;99.90;;;;;;5065984;28;20204;-70
2023/01/27 08:26:20;;;;;;;;;;;-1.30;99.90;;;;;;5065855;28;19991;-68
2023/01/27 08:28:46;;;;;;;;;;;-1.30;99.90;;;;;;5065851;28;20230;-70
2023/01/27 08:31:14;;;;;;;;;;;-1.30;99.90;;;;;;5065675;28;19929;-70
2023/01/27 08:33:41;;;;;;;;;;;-1.30;99.90;;;;;;5065954;28;19988;-69
2023/01/27 08:36:10;;;;;;;;;;;-1.30;99.90;;;;;;5065291;28;19950;-69
2023/01/27 08:38:38;;;;;;;;;;;-1.30;99.90;;;;;;5064328;28;19921;-70
2023/01/27 08:41:06;;;;;;;;;;;-1.30;99.90;;;;;;5065660;28;20255;-70
2023/01/27 08:43:33;;;;;;;;;;;-1.40;99.90;;;;;;5065817;28;19921;-69
2023/01/27 08:46:00;;;;;;;;;;;-1.30;99.90;;;;;;5065684;28;19920;-70
2023/01/27 08:48:28;;;;;;;;;;;-1.30;99.90;;;;;;5065427;28;19952;-70
2023/01/27 08:50:54;;;;;;;;;;;-1.30;99.90;;;;;;5065628;28;19928;-70
2023/01/27 08:53:21;;;;;;;;;;;-1.20;99.90;;;;;;5065390;28;20204;-70
2023/01/27 08:55:50;;;;;;;;;;;-1.20;99.90;;;;;;5065552;28;19921;-70
2023/01/27 08:58:16;;;;;;;;;;;-1.20;99.90;;;;;;5065486;28;19946;-70
2023/01/27 09:00:43;;;;;;;;;;;-1.20;99.90;;;;;;5065282;28;19921;-70
2023/01/27 09:03:10;;;;;;;;;;;-1.20;99.90;;;;;;5065381;28;19952;-70
2023/01/27 09:05:37;;;;;;;;;;;-1.20;99.90;;;;;;5065468;28;19980;-70
2023/01/27 09:08:04;;;;;;;;;;;-1.30;99.90;;;;;;5065177;28;20151;-69
2023/01/27 09:10:30;;;;;;;;;;;-1.20;99.90;;;;;;5065372;28;20112;-70
2023/01/27 09:12:58;;;;;;;;;;;-1.20;99.90;;;;;;5065280;28;19921;-70
2023/01/27 09:15:25;;;;;;;;;;;-1.20;99.90;;;;;;5065241;28;19921;-70
2023/01/27 09:17:51;;;;;;;;;;;-1.10;99.90;;;;;;5064764;28;19984;-70
2023/01/27 09:20:18;;;;;;;;;;;-1.10;99.90;;;;;;5065332;28;19967;-70
2023/01/27 09:22:45;;;;;;;;;;;-1.10;99.90;;;;;;5065167;28;20172;-69
2023/01/27 09:25:13;;;;;;;;;;;-1.10;99.90;;;;;;5064609;28;20268;-69
2023/01/27 09:27:40;;;;;;;;;;;-1.00;99.90;;;;;;5074742;28;19960;-69
2023/01/27 09:30:09;;;;;;;;;;;-1.00;99.90;;;;;;5085010;28;20119;-69
2023/01/27 09:32:35;;;;;;;;;;;-1.00;99.90;;;;;;5084996;28;19920;-69
2023/01/27 09:35:02;;;;;;;;;;;-1.00;99.90;;;;;;5084466;28;19929;-69
2023/01/27 09:37:29;;;;;;;;;;;-1.00;99.90;;;;;;5084202;28;19989;-69
2023/01/27 09:39:57;;;;;;;;;;;-1.00;99.90;;;;;;5084663;28;20039;-69
2023/01/27 09:42:32;;;;;;;;;;;-0.90;99.90;;;;;;5084633;28;19987;-69
2023/01/27 09:45:15;;;;;;;;;;;-0.90;99.90;;;;;;5084328;28;19927;-69
2023/01/27 09:47:47;;;;;;;;;;;-0.80;99.90;;;;;;5083837;28;20362;-69
2023/01/27 09:50:19;;;;;;;;;;;-0.80;99.90;;;;;;5064122;28;19961;-69
2023/01/27 09:52:54;;;;;;;;;;;-0.80;99.90;;;;;;5064360;28;19927;-69
2023/01/27 09:55:24;;;;;;;;;;;-0.80;99.90;;;;;;5064133;28;19925;-68
2023/01/27 09:57:55;;;;;;;;;;;-0.80;99.90;;;;;;5064064;28;20112;-69
2023/01/27 10:00:29;;;;;;;;;;;-0.80;99.90;;;;;;5064284;28;19992;-69
2023/01/27 10:03:05;;;;;;;;;;;-0.70;99.90;;;;;;5063914;28;19983;-70
2023/01/27 10:05:45;;;;;;;;;;;-0.70;99.90;;;;;;5064235;28;20048;-69
2023/01/27 10:08:25;;;;;;;;;;;-0.70;99.90;;;;;;5063361;28;20209;-69
2023/01/27 10:10:59;;;;;;;;;;;-0.70;99.90;;;;;;5064007;28;19921;-69
2023/01/27 10:13:32;;;;;;;;;;;-0.70;99.90;;;;;;5063909;28;19987;-69
2023/01/27 10:16:07;;;;;;;;;;;-0.80;99.90;;;;;;5063694;28;19988;-70
2023/01/27 10:18:42;;;;;;;;;;;-0.70;99.90;;;;;;5064011;28;19925;-69
2023/01/27 10:21:12;;;;;;;;;;;-0.80;99.90;;;;;;5062932;28;20171;-70
2023/01/27 10:23:45;;;;;;;;;;;-0.80;99.90;;;;;;5063620;28;19987;-69
2023/01/27 10:26:18;;;;;;;;;;;-0.80;99.90;;;;;;5063423;28;19988;-69
2023/01/27 10:28:49;;;;;;;;;;;-0.70;99.90;;;;;;5081282;28;19927;-69
2023/01/27 10:31:23;;;;;;;;;;;-0.70;99.90;;;;;;5083042;28;20571;-69
2023/01/27 10:33:51;;;;;;;;;;;-0.70;99.90;;;;;;5069933;28;20216;-69
2023/01/27 10:36:22;;;;;;;;;;;-0.70;99.90;;;;;;5062290;28;19920;-70
2023/01/27 10:38:53;;;;;;;;;;;-0.80;99.90;;;;;;5056891;28;19984;-69
2023/01/27 10:41:27;;;;;;;;;;;-0.80;99.90;;;;;;5063593;28;20120;-71
2023/01/27 10:44:02;;;;;;;;;;;-0.80;99.90;;;;;;5056433;28;19983;-71
2023/01/27 10:46:34;;;;;;;;;;;-0.80;99.90;;;;;;5060670;28;19921;-71
2023/01/27 10:49:04;;;;;;;;;;;-0.80;99.90;;;;;;5063439;28;19927;-69
2023/01/27 10:51:34;;;;;;;;;;;-0.70;99.90;;;;;;5063275;28;20166;-69
2023/01/27 10:54:04;;;;;;;;;;;-0.70;99.90;;;;;;5063427;28;19927;-69
2023/01/27 10:56:33;;;;;;;;;;;-0.70;99.90;;;;;;5062909;28;19943;-69
2023/01/27 10:59:02;;;;;;;;;;;-0.70;99.90;;;;;;5063202;28;19921;-68
2023/01/27 11:01:31;;;;;;;;;;;-0.70;99.90;;;;;;5062212;28;19984;-69
2023/01/27 11:04:01;;;;;;;;;;;-0.70;99.90;;;;;;5062726;28;19921;-69
2023/01/27 11:06:28;;;;;;;;;;;-0.70;99.90;;;;;;5063005;28;19928;-70
2023/01/27 11:08:58;;;;;;;;;;;-0.70;99.90;;;;;;5063018;28;19937;-69
2023/01/27 11:11:44;;;;;;;;;;;-0.80;99.90;;;;;;5063435;28;19984;-69
2023/01/27 11:14:14;;;;;;;;;;;-0.70;99.90;;;;;;5062878;28;19921;-69
2023/01/27 11:16:43;;;;;;;;;;;-0.70;99.90;;;;;;5063032;28;19984;-69
2023/01/27 11:19:16;;;;;;;;;;;-0.70;99.90;;;;;;5062895;28;19988;-69
2023/01/27 11:21:42;;;;;;;;;;;-0.60;99.90;;;;;;5063173;28;19921;-69
2023/01/27 11:24:14;;;;;;;;;;;-0.60;99.90;;;;;;5062791;28;19927;-69
2023/01/27 11:26:43;;;;;;;;;;;-0.50;99.90;;;;;;5062924;28;19924;-70
2023/01/27 11:29:18;;;;;;;;;;;-0.50;99.90;;;;;;5062684;28;19984;-71
2023/01/27 11:31:50;;;;;;;;;;;-0.50;99.90;;;;;;5062780;28;19927;-69
2023/01/27 11:34:21;;;;;;;;;;;-0.50;99.90;;;;;;5062980;28;19952;-69
2023/01/27 11:36:49;;;;;;;;;;;-0.50;99.90;;;;;;5062560;28;19984;-69
2023/01/27 11:39:17;;;;;;;;;;;-0.40;99.90;;;;;;5062495;28;19920;-69
2023/01/27 11:41:46;;;;;;;;;;;-0.40;99.90;;;;;;5062582;28;19921;-69
2023/01/27 11:44:17;;;;;;;;;;;-0.40;99.90;;;;;;5062801;28;19948;-69
2023/01/27 11:46:44;;;;;;;;;;;-0.40;99.90;;;;;;5062680;28;19944;-69
2023/01/27 11:49:12;;;;;;;;;;;-0.40;99.90;;;;;;5062656;28;20200;-69
2023/01/27 11:51:40;;;;;;;;;;;-0.30;99.90;;;;;;5060780;28;19929;-69
2023/01/27 11:54:12;;;;;;;;;;;-0.30;99.90;;;;;;5055788;28;19920;-69
2023/01/27 11:56:39;;;;;;;;;;;-0.30;99.90;;;;;;5052649;28;19921;-69
2023/01/27 11:59:08;;;;;;;;;;;-0.30;99.90;;;;;;5042842;28;19953;-69
2023/01/27 12:01:39;;;;;;;;;;;-0.30;99.90;;;;;;5058121;28;19948;-69
2023/01/27 12:04:09;;;;;;;;;;;-0.30;99.90;;;;;;5062733;28;19935;-71
2023/01/27 12:06:38;;;;;;;;;;;-0.30;99.90;;;;;;5062105;28;20239;-69
2023/01/27 12:09:06;;;;;;;;;;;-0.30;99.90;;;;;;5062408;28;19927;-69
2023/01/27 12:11:32;;;;;;;;;;;-0.30;99.90;;;;;;5062362;28;19929;-68
2023/01/27 12:14:00;;;;;;;;;;;-0.30;99.90;;;;;;5064829;28;19927;-69
2023/01/27 12:16:30;;;;;;;;;;;-0.30;99.90;;;;;;5065573;28;20180;-69
2023/01/27 12:18:59;;;;;;;;;;;-0.30;99.90;;;;;;5066127;28;19943;-69
2023/01/27 12:21:39;;;;;;;;;;;-0.40;99.90;;;;;;5066214;28;19979;-69
2023/01/27 12:24:13;;;;;;;;;;;-0.40;99.90;;;;;;5066516;28;19959;-69
2023/01/27 12:26:40;;;;;;;;;;;-0.40;99.90;;;;;;5065524;28;19948;-69
2023/01/27 12:29:07;;;;;;;;;;;-0.40;99.90;;;;;;5064626;28;19927;-68
2023/01/27 12:31:43;;;;;;;;;;;-0.40;99.90;;;;;;5064249;28;19920;-69
2023/01/27 12:34:17;;;;;;;;;;;-0.40;99.90;;;;;;5064634;28;19979;-69
2023/01/27 12:36:44;;;;;;;;;;;-0.40;99.90;;;;;;5064052;28;19928;-69
2023/01/27 12:39:26;;;;;;;;;;;-0.30;99.90;;;;;;5063884;28;19921;-68
2023/01/27 12:41:52;;;;;;;;;;;-0.30;99.90;;;;;;5049572;28;19959;-69
2023/01/27 12:44:21;;;;;;;;;;;-0.30;99.90;;;;;;5065036;28;19921;-69
2023/01/27 12:46:56;;;;;;;;;;;-0.20;99.90;;;;;;5065133;28;19936;-69
2023/01/27 12:49:22;;;;;;;;;;;-0.20;99.90;;;;;;5065856;28;19988;-69
2023/01/27 12:51:51;;;;;;;;;;;-0.30;99.90;;;;;;5065508;28;19987;-69
2023/01/27 12:54:21;;;;;;;;;;;-0.40;99.90;;;;;;5065562;28;20116;-69
2023/01/27 12:56:50;;;;;;;;;;;-0.40;99.90;;;;;;5065130;28;19921;-69
2023/01/27 12:59:17;;;;;;;;;;;-0.40;99.90;;;;;;5065355;28;19928;-69
2023/01/27 13:01:56;;;;;;;;;;;-0.40;99.90;;;;;;5065797;28;20137;-70
2023/01/27 13:04:25;;;;;;;;;;;-0.40;99.90;;;;;;5064445;28;19997;-69
2023/01/27 13:06:54;;;;;;;;;;;-0.30;99.90;;;;;;5064990;28;19962;-69
2023/01/27 13:09:25;;;;;;;;;;;-0.30;99.90;;;;;;5065105;28;19927;-69
2023/01/27 13:11:53;;;;;;;;;;;-0.30;99.90;;;;;;5064927;28;20208;-70
2023/01/27 13:14:20;;;;;;;;;;;-0.30;99.90;;;;;;5065184;28;19927;-69
2023/01/27 13:16:50;;;;;;;;;;;-0.30;99.90;;;;;;5064843;28;19988;-69
2023/01/27 13:19:17;;;;;;;;;;;-0.20;99.90;;;;;;5064858;28;19921;-69
2023/01/27 13:21:46;;;;;;;;;;;-0.20;99.90;;;;;;5062732;28;20341;-67
2023/01/27 13:24:14;;;;;;;;;;;-0.20;99.90;;;;;;5051232;28;19992;-65
2023/01/27 13:26:41;;;;;;;;;;;-0.20;99.90;;;;;;5064378;28;20116;-67
2023/01/27 13:29:14;;;;;;;;;;;-0.20;99.90;;;;;;5053804;28;19921;-69
2023/01/27 13:31:44;;;;;;;;;;;-0.20;99.90;;;;;;5080435;28;19931;-66
2023/01/27 13:34:17;;;;;;;;;;;-0.20;99.90;;;;;;5076460;28;19996;-66
2023/01/27 13:36:45;;;;;;;;;;;-0.20;99.90;;;;;;5060576;28;20116;-67
2023/01/27 13:39:17;;;;;;;;;;;-0.20;99.90;;;;;;5061347;28;19921;-67
2023/01/27 13:41:45;;;;;;;;;;;-0.10;99.90;;;;;;5056575;28;19925;-67
2023/01/27 13:44:19;;;;;;;;;;;-0.10;99.90;;;;;;5057647;28;19921;-67
2023/01/27 13:46:47;;;;;;;;;;;-0.10;99.90;;;;;;5063474;28;19920;-67
2023/01/27 13:49:21;;;;;;;;;;;0.00;99.90;;;;;;5060754;28;19927;-67
2023/01/27 13:51:47;;;;;;;;;;;0.00;99.90;;;;;;5064336;28;19920;-67
2023/01/27 13:54:15;;;;;;;;;;;-0.10;99.90;;;;;;5070745;28;19952;-67
2023/01/27 13:56:48;;;;;;;;;;;-0.10;99.90;;;;;;5076406;28;19959;-67
2023/01/27 13:59:27;;;;;;;;;;;-0.10;99.90;;;;;;5084304;28;19927;-67
2023/01/27 14:01:58;;;;;;;;;;;-0.10;99.90;;;;;;5054436;28;19921;-66
2023/01/27 14:04:39;;;;;;;;;;;-0.20;99.90;;;;;;5064075;28;19920;-67
2023/01/27 14:07:11;;;;;;;;;;;-0.10;99.90;;;;;;5064554;28;20208;-66
2023/01/27 14:09:46;;;;;;;;;;;-0.10;99.90;;;;;;5061903;28;19943;-67
2023/01/27 14:12:18;;;;;;;;;;;0.00;99.90;;;;;;5048125;28;19927;-67
2023/01/27 14:14:50;;;;;;;;;;;0.00;99.90;;;;;;5063846;28;19987;-67
2023/01/27 14:17:29;;;;;;;;;;;0.00;99.90;;;;;;5059648;28;20490;-67
2023/01/27 14:20:03;;;;;;;;;;;-0.10;99.90;;;;;;5078826;28;19920;-67
2023/01/27 14:22:35;;;;;;;;;;;-0.10;99.90;;;;;;5077943;28;19991;-66
2023/01/27 14:25:04;;;;;;;;;;;-0.10;99.90;;;;;;5071784;28;19980;-67
2023/01/27 14:27:34;;;;;;;;;;;-0.10;99.90;;;;;;5062881;28;19960;-69
2023/01/27 14:30:04;;;;;;;;;;;-0.10;99.90;;;;;;5067085;28;19920;-66
2023/01/27 14:32:35;;;;;;;;;;;-0.10;99.90;;;;;;5066166;28;19951;-67
2023/01/27 14:35:11;;;;;;;;;;;-0.10;99.90;;;;;;5069616;28;19920;-67
2023/01/27 14:37:44;;;;;;;;;;;0.00;99.90;;;;;;5077842;28;19943;-67
2023/01/27 14:40:16;;;;;;;;;;;-0.10;99.90;;;;;;5081938;28;19987;-67
2023/01/27 14:42:47;;;;;;;;;;;0.00;99.90;;;;;;5067029;28;19933;-67
2023/01/27 14:45:18;;;;;;;;;;;0.00;99.90;;;;;;5063060;28;19928;-67
2023/01/27 14:47:47;;;;;;;;;;;0.10;99.90;;;;;;5062999;28;20007;-66
2023/01/27 14:50:19;;;;;;;;;;;0.10;99.90;;;;;;5063481;28;19991;-67
2023/01/27 14:52:48;;;;;;;;;;;0.10;99.90;;;;;;5062990;28;20123;-66
2023/01/27 14:55:26;;;;;;;;;;;0.10;99.90;;;;;;5062549;28;19968;-66
2023/01/27 14:57:56;;;;;;;;;;;0.10;99.90;;;;;;5060951;28;19952;-67
2023/01/27 15:00:33;;;;;;;;;;;0.10;99.90;;;;;;5067834;28;20162;-66
2023/01/27 15:03:09;;;;;;;;;;;0.10;99.90;;;;;;5078838;28;19927;-67
2023/01/27 15:05:39;;;;;;;;;;;0.10;99.90;;;;;;5082804;28;20204;-67